Flight Track Log - Related Links

Times and Time Zones

All times are in EDT time to prevent confusion due to time zone crossing. See the KAP5 flight status page for this flight to view local times or setup timezone preferences in your user account.

Time Position Orientation Groundspeed Altitude Reporting Facility
EDT Latitude Longitude Course Direction KTS MPH feet Rate Location/Type
Mon 01:04:55 PM 44.6994 -75.3636 78° East 160 184 4,200  Level Boston Center
Mon 01:06:00 PM 44.7217 -75.2990 64° Northeast  Level FlightAware Approximate
Mon 01:07:55 PM 44.7047 -75.2267 156° South 120 138 6,400  Level Boston Center
Mon 01:08:55 PM 44.7081 -75.1800 84° East 114 131 7,000 300 Climbing Boston Center
Mon 01:09:55 PM 44.7133 -75.1275 94° East 119 137 7,000  Level Boston Center
Mon 01:10:00 PM 44.7053 -75.1172 94° East  Level FlightAware Approximate
Mon 01:11:55 PM 44.7061 -74.9900 94° East 162 186 7,000  Level Boston Center
Mon 01:12:55 PM 44.6692 -74.9592 149° Southeast 146 168 7,000 45 Level Boston Center
Mon 01:13:00 PM 44.6249 -74.9527 156° South  Level FlightAware Approximate
Mon 01:14:07 PM 44.6158 -74.9278 157° South 158 182 7,100  Level Boston Center
Mon 01:16:07 PM 44.5294 -74.8744 156° South 168 193 7,000  Descending Boston Center
Mon 01:17:08 PM 44.4861 -74.8494 158° South 168 193 7,100 50 Climbing Boston Center
Mon 01:18:07 PM 44.4408 -74.8244 158° South 173 199 7,100  Level Boston Center
Mon 01:19:08 PM 44.3978 -74.7964 155° Southeast 173 199 7,100 -50 Level Boston Center
Mon 01:20:08 PM 44.3647 -74.7778 158° South 173 199 7,000 -50 Descending Boston Center
Mon 01:21:07 PM 44.3175 -74.7469 155° Southeast 173 199 7,000  Level Boston Center
Mon 01:22:07 PM 44.2742 -74.7219 158° South 173 199 7,000  Level Boston Center
Mon 01:23:08 PM 44.2308 -74.6942 155° Southeast 173 199 7,000  Level Boston Center
Mon 01:24:08 PM 44.1878 -74.6667 155° Southeast 173 199 7,000  Level Boston Center
Mon 01:25:08 PM 44.1444 -74.6417 158° South 173 199 7,000  Level Boston Center
Mon 01:26:07 PM 44.1033 -74.6172 157° South 173 199 7,000 50 Level Boston Center
Mon 01:27:07 PM 44.0578 -74.5894 156° South 173 199 7,100 50 Climbing Boston Center
Mon 01:28:07 PM 44.0167 -74.5619 154° Southeast 173 199 7,100  Level Boston Center
Mon 01:29:08 PM 43.9714 -74.5372 159° South 173 199 7,100  Level Boston Center
Mon 01:30:07 PM 43.9300 -74.5128 157° South 173 199 7,100  Level Boston Center
Mon 01:31:08 PM 43.8867 -74.4853 155° Southeast 173 199 7,100  Level Boston Center
Mon 01:32:19 PM 43.8436 -74.4581 155° Southeast 173 199 7,100  Level Boston Center
Mon 01:33:19 PM 43.7961 -74.4306 157° South 173 199 7,100  Level Boston Center
Mon 01:34:19 PM 43.7528 -74.4033 156° South 173 199 7,100  Level Boston Center
Mon 01:35:19 PM 43.7114 -74.3817 159° South 168 193 7,100  Level Boston Center
Mon 01:36:20 PM 43.6703 -74.3547 155° Southeast 168 193 7,100  Level Boston Center
Mon 01:37:20 PM 43.6311 -74.3333 158° South 168 193 7,100  Level Boston Center
Mon 01:38:20 PM 43.5878 -74.3061 156° South 168 193 7,100  Level Boston Center
Mon 01:39:01 PM 43.5567 -74.2822 151° Southeast 166 191 7,100  Level Boston Center
Mon 01:39:43 PM 43.5278 -74.2642 156° South 162 186 7,100  Level Boston Center
Mon 01:40:19 PM 43.5031 -74.2578 169° South 173 199 7,100  Level Boston Center
Mon 01:41:19 PM 43.4639 -74.2308 153° Southeast 168 193 7,100  Level Boston Center
Mon 01:42:20 PM 43.4203 -74.2153 165° South 168 193 7,100  Level Boston Center
Mon 01:43:19 PM 43.3742 -74.2253 189° South 163 188 7,100  Level Boston Center
Mon 01:43:52 PM 43.3472 -74.2244 179° South 163 188 7,100  Level Boston Center
Mon 01:44:52 PM 43.3058 -74.2006 157° South 166 191 7,100 -162 Level Boston Center
Mon 01:46:20 PM 43.2506 -74.1419 142° Southeast 172 198 6,700 -367 Descending Boston Center
Mon 01:47:19 PM 43.2136 -74.1039 143° Southeast 172 198 6,200 -638 Descending Boston Center
Mon 01:47:54 PM 43.1847 -74.0858 155° Southeast 189 217 5,700 -733 Descending Boston Center
Mon 01:48:49 PM 43.1414 -74.0533 151° Southeast 189 217 5,100 -367 Descending Boston Center
Mon 01:49:32 PM 43.1125 -74.0328 153° Southeast 177 204 5,100 -294 Level Boston Center
Mon 01:50:31 PM 43.0753 -74.0061 152° Southeast 177 204 4,600 -600 Descending Boston Center
Mon 01:51:02 PM 43.0483 -73.9914 158° South 173 199 4,200 -885 Descending Boston Center
Mon 01:51:32 PM 43.0236 -73.9708 149° Southeast 177 204 3,700 -885 Descending Boston Center
Mon 01:52:03 PM 43.0008 -73.9561 155° Southeast 187 215 3,300 -659 Descending Boston Center
Mon 01:53:03 PM 42.9661 -73.9097 136° Southeast 174 200 2,700 -595 Descending Boston Center
Mon 01:54:04 PM 42.9439 -73.8553 119° Southeast 171 197 2,100 -393 Descending Boston Center
Mon 01:55:05 PM 42.9111 -73.8150 138° Southeast 165 190 1,900 -198 Descending Boston Center
Mon 01:57:06 PM 42.8172 -73.8100 178° South 168 193 1,500 -447 Descending Boston Center
Mon 01:58:13 PM 42.7611 -73.8089 179° South 161 185 500 -896 Descending Boston Center
Mon 02:00:00 PM 42.7491 -73.8020 160° South  Level Estimated
Mon 02:07:00 PM 42.7491 -73.8020 160° South  Level Estimated
Mon 02:08:00 PM 42.7491 -73.8020 160° South  Level Estimated

Login

Don't have an account? Register now (free) for customized features, flight alerts, and more!